Time;durP1;ratioP1;P1;durP2;ratioP2;P2;SDS_P1;SDS_P2;PMS_P1;PMS_P2;Temp;Humidity;BMP_temperature;BMP_pressure;BME280_temperature;BME280_humidity;BME280_pressure;Samples;Min_cycle;Max_cycle;Signal;HPM_P1;HPM_P2
2023/11/26 00:02:16;;;;;;;47.92;17.23;;;0.50;99.90;;;;;;5015643;28;20062;-94
2023/11/26 00:04:42;;;;;;;42.45;16.35;;;0.50;99.90;;;;;;4999580;28;20042;-92
2023/11/26 00:07:07;;;;;;;37.08;14.80;;;0.50;99.90;;;;;;5019450;28;20081;-92
2023/11/26 00:09:36;;;;;;;35.30;14.40;;;0.50;99.90;;;;;;5001762;28;20118;-89
2023/11/26 00:12:05;;;;;;;25.60;11.68;;;0.50;99.90;;;;;;4985383;28;20019;-91
2023/11/26 00:14:31;;;;;;;30.27;12.52;;;0.40;99.90;;;;;;5001863;28;20037;-85
2023/11/26 00:16:57;;;;;;;22.02;10.52;;;0.40;99.90;;;;;;5002208;28;20039;-86
2023/11/26 00:19:22;;;;;;;21.23;10.07;;;0.30;99.90;;;;;;5002117;28;20007;-86
2023/11/26 00:21:49;;;;;;;23.80;9.90;;;0.30;99.90;;;;;;5019683;28;20018;-87
2023/11/26 00:24:14;;;;;;;22.05;10.80;;;0.30;99.90;;;;;;5002397;28;20026;-86
2023/11/26 00:26:40;;;;;;;25.60;9.40;;;0.30;99.90;;;;;;5002418;28;20018;-87
2023/11/26 00:29:06;;;;;;;25.58;10.30;;;0.30;99.90;;;;;;5019503;28;20030;-85
2023/11/26 00:31:31;;;;;;;21.83;9.93;;;0.20;99.90;;;;;;5002666;28;20015;-87
2023/11/26 00:33:57;;;;;;;26.00;9.80;;;0.20;99.90;;;;;;5019798;28;20038;-87
2023/11/26 00:36:26;;;;;;;28.35;11.18;;;0.20;99.90;;;;;;5001923;28;20106;-87
2023/11/26 00:38:52;;;;;;;23.30;11.20;;;0.20;99.90;;;;;;4986587;28;20069;-88
2023/11/26 00:41:18;;;;;;;26.42;11.35;;;0.10;99.90;;;;;;5019298;28;20018;-91
2023/11/26 00:43:44;;;;;;;25.88;10.23;;;0.10;99.90;;;;;;5019579;28;20173;-88
2023/11/26 00:46:10;;;;;;;21.65;8.52;;;0.10;99.90;;;;;;5019813;28;20023;-92
2023/11/26 00:48:37;;;;;;;15.05;7.32;;;0.10;99.90;;;;;;5019617;28;20094;-88
2023/11/26 00:51:04;;;;;;;15.43;5.15;;;0.10;99.90;;;;;;5001633;28;20029;-86
2023/11/26 00:53:30;;;;;;;13.20;4.75;;;0.10;99.90;;;;;;5019783;28;20018;-95
2023/11/26 00:55:56;;;;;;;11.85;5.63;;;0.20;99.90;;;;;;5002479;28;20034;-94
2023/11/26 00:58:22;;;;;;;16.25;4.90;;;0.20;99.90;;;;;;5002939;28;20010;-88
2023/11/26 01:00:47;;;;;;;11.57;5.28;;;0.20;99.90;;;;;;5000992;28;20029;-94
2023/11/26 01:03:18;;;;;;;11.95;5.75;;;0.20;99.90;;;;;;5001463;28;20034;-93
2023/11/26 01:05:44;;;;;;;12.02;4.88;;;0.20;99.90;;;;;;5019122;28;20019;-90
2023/11/26 01:08:11;;;;;;;12.40;5.47;;;0.20;99.90;;;;;;5002287;28;20057;-88
2023/11/26 01:10:37;;;;;;;9.93;4.38;;;0.20;99.90;;;;;;5017974;28;20011;-86
2023/11/26 01:13:04;;;;;;;9.27;4.13;;;0.20;99.90;;;;;;5013388;28;20030;-92
2023/11/26 01:15:30;;;;;;;10.80;4.65;;;0.20;99.90;;;;;;5000851;28;20049;-87
2023/11/26 01:17:55;;;;;;;13.85;4.85;;;0.20;99.90;;;;;;4998286;28;20010;-88
2023/11/26 01:20:22;;;;;;;10.30;4.00;;;0.10;99.90;;;;;;5018151;28;20014;-92
2023/11/26 01:22:47;;;;;;;14.00;5.57;;;0.10;99.90;;;;;;5018129;28;20041;-89
2023/11/26 01:25:13;;;;;;;12.35;5.13;;;0.10;99.90;;;;;;5017696;28;20022;-90
2023/11/26 01:27:39;;;;;;;13.70;6.95;;;0.10;99.90;;;;;;5001037;28;20011;-88
2023/11/26 01:30:06;;;;;;;16.15;7.53;;;0.00;99.90;;;;;;5001115;28;20098;-90
2023/11/26 01:32:34;;;;;;;22.33;9.55;;;0.00;99.90;;;;;;5000489;28;20053;-89
2023/11/26 01:35:00;;;;;;;26.85;10.80;;;-0.10;99.90;;;;;;5017869;28;20018;-88
2023/11/26 01:37:26;;;;;;;28.10;10.88;;;-0.10;99.90;;;;;;4990445;28;20030;-88
2023/11/26 01:39:51;;;;;;;23.85;9.82;;;-0.20;99.90;;;;;;5017662;28;20033;-87
2023/11/26 01:42:17;;;;;;;24.83;10.10;;;-0.20;99.90;;;;;;5000853;28;20091;-91
2023/11/26 01:44:43;;;;;;;19.20;9.13;;;-0.20;99.90;;;;;;5017910;28;20038;-87
2023/11/26 01:47:09;;;;;;;23.70;9.30;;;-0.30;99.90;;;;;;5017880;28;20025;-88
2023/11/26 01:49:36;;;;;;;20.30;7.93;;;-0.20;99.90;;;;;;5019769;28;20031;-89
2023/11/26 01:52:06;;;;;;;19.77;8.65;;;-0.30;99.90;;;;;;5013472;28;20066;-90
2023/11/26 01:54:35;;;;;;;20.55;8.93;;;-0.20;99.90;;;;;;5000870;28;20014;-88
2023/11/26 01:57:04;;;;;;;21.58;7.60;;;-0.20;99.90;;;;;;5001060;28;20022;-89
2023/11/26 01:59:30;;;;;;;18.70;7.97;;;-0.20;99.90;;;;;;5000747;28;20018;-90
2023/11/26 02:01:56;;;;;;;21.73;8.85;;;-0.20;99.90;;;;;;5014787;28;20018;-89
2023/11/26 02:04:22;;;;;;;25.10;8.18;;;-0.20;99.90;;;;;;5017700;28;20082;-89
2023/11/26 02:06:55;;;;;;;22.35;7.55;;;-0.20;99.90;;;;;;5000563;28;20030;-88
2023/11/26 02:09:25;;;;;;;23.65;10.63;;;-0.20;99.90;;;;;;5007232;28;20021;-87
2023/11/26 02:11:51;;;;;;;22.20;9.77;;;-0.20;99.90;;;;;;4984395;28;20122;-90
2023/11/26 02:14:17;;;;;;;23.20;9.73;;;-0.20;99.90;;;;;;5017634;28;20039;-87
2023/11/26 02:16:49;;;;;;;18.13;9.45;;;-0.20;99.90;;;;;;5000466;28;20046;-88
2023/11/26 02:19:35;;;;;;;24.98;7.75;;;-0.20;99.90;;;;;;5001070;28;20347;-88
2023/11/26 02:22:01;;;;;;;16.88;6.00;;;-0.20;99.90;;;;;;5014874;28;20038;-89
2023/11/26 02:24:36;;;;;;;15.40;7.43;;;-0.20;99.90;;;;;;5000254;28;20018;-90
2023/11/26 02:27:02;;;;;;;19.92;7.22;;;-0.20;99.90;;;;;;5017303;28;20026;-89
2023/11/26 02:29:27;;;;;;;16.50;6.55;;;-0.20;99.90;;;;;;5000578;28;20003;-88
2023/11/26 02:31:53;;;;;;;17.13;7.57;;;-0.30;99.90;;;;;;5000412;28;20038;-89
2023/11/26 02:34:19;;;;;;;20.38;7.75;;;-0.30;99.90;;;;;;5000703;28;20011;-87
2023/11/26 02:36:44;;;;;;;19.45;7.80;;;-0.30;99.90;;;;;;5002715;28;20098;-87
2023/11/26 02:39:10;;;;;;;18.50;7.78;;;-0.30;99.90;;;;;;5022155;28;20110;-86
2023/11/26 02:41:36;;;;;;;17.30;7.93;;;-0.30;99.90;;;;;;5005281;28;20085;-87
2023/11/26 02:44:02;;;;;;;25.52;8.95;;;-0.30;99.90;;;;;;5004866;28;20022;-87
2023/11/26 02:46:28;;;;;;;20.95;7.97;;;-0.30;99.90;;;;;;5004188;28;20046;-90
2023/11/26 02:48:54;;;;;;;14.68;6.22;;;-0.30;99.90;;;;;;5021044;28;20015;-88
2023/11/26 02:51:19;;;;;;;17.65;7.20;;;-0.30;99.90;;;;;;5020831;28;20034;-88
2023/11/26 02:53:45;;;;;;;21.30;7.97;;;-0.30;99.90;;;;;;5004089;28;20018;-88
2023/11/26 02:56:14;;;;;;;19.92;8.20;;;-0.20;99.90;;;;;;5028604;28;20037;-88
2023/11/26 02:58:42;;;;;;;20.10;8.35;;;-0.30;99.90;;;;;;5021293;28;20010;-87
2023/11/26 03:01:15;;;;;;;18.33;8.70;;;-0.30;99.90;;;;;;5004026;28;20033;-89
2023/11/26 03:03:41;;;;;;;18.50;8.35;;;-0.30;99.90;;;;;;5002950;28;20053;-88
2023/11/26 03:06:08;;;;;;;15.60;8.00;;;-0.30;99.90;;;;;;5004384;28;20023;-85
2023/11/26 03:08:35;;;;;;;19.65;9.20;;;-0.30;99.90;;;;;;5021014;28;20023;-87
2023/11/26 03:13:46;;;;;;;22.30;9.13;;;-0.30;99.90;;;;;;5021541;28;20079;-86
2023/11/26 03:16:12;;;;;;;23.92;8.85;;;-0.30;99.90;;;;;;5003418;28;20058;-87
2023/11/26 03:18:38;;;;;;;22.50;9.40;;;-0.30;99.90;;;;;;5004099;28;20037;-87
2023/11/26 03:21:05;;;;;;;23.45;9.43;;;-0.30;99.90;;;;;;5003622;28;20086;-87
2023/11/26 03:23:31;;;;;;;22.00;9.63;;;-0.40;99.90;;;;;;5003798;28;20010;-87
2023/11/26 03:25:57;;;;;;;18.52;8.88;;;-0.30;99.90;;;;;;5003895;28;20021;-88
2023/11/26 03:28:23;;;;;;;26.23;9.82;;;-0.30;99.90;;;;;;5003781;28;20030;-90
2023/11/26 03:30:52;;;;;;;20.98;9.88;;;-0.30;99.90;;;;;;5003571;28;20045;-87
2023/11/26 03:33:19;;;;;;;22.35;9.55;;;-0.30;99.90;;;;;;5020245;28;20033;-87
2023/11/26 03:35:45;;;;;;;20.58;8.63;;;-0.30;99.90;;;;;;5003346;28;20053;-89
2023/11/26 03:38:12;;;;;;;21.10;9.75;;;-0.30;99.90;;;;;;5003547;28;20070;-89
2023/11/26 03:40:39;;;;;;;22.63;9.40;;;-0.30;99.90;;;;;;5002907;28;20029;-86
2023/11/26 03:43:05;;;;;;;21.27;9.27;;;-0.30;99.90;;;;;;5003154;28;20068;-86
2023/11/26 03:45:31;;;;;;;19.20;8.77;;;-0.30;99.90;;;;;;5003189;28;20015;-87
2023/11/26 03:47:59;;;;;;;19.45;8.55;;;-0.30;99.90;;;;;;5006678;28;20015;-87
2023/11/26 03:50:25;;;;;;;19.88;8.38;;;-0.30;99.90;;;;;;5018924;28;20024;-86
2023/11/26 03:52:54;;;;;;;14.68;7.65;;;-0.30;99.90;;;;;;5019490;28;20030;-86
2023/11/26 03:55:19;;;;;;;21.75;8.55;;;-0.30;99.90;;;;;;4999430;28;20030;-85
2023/11/26 03:57:45;;;;;;;17.10;7.80;;;-0.40;99.90;;;;;;5002976;28;20022;-88
2023/11/26 04:00:12;;;;;;;19.15;8.10;;;-0.40;99.90;;;;;;5002837;28;20015;-86
2023/11/26 04:02:38;;;;;;;19.10;7.90;;;-0.40;99.90;;;;;;5002768;28;20003;-88
2023/11/26 04:05:05;;;;;;;19.75;7.20;;;-0.30;99.90;;;;;;5019792;28;20014;-88
2023/11/26 04:07:31;;;;;;;16.92;7.47;;;-0.40;99.90;;;;;;5010986;28;20090;-91
2023/11/26 04:09:57;;;;;;;19.45;8.13;;;-0.40;99.90;;;;;;5000099;28;20014;-90
2023/11/26 04:12:23;;;;;;;16.08;8.05;;;-0.40;99.90;;;;;;5002884;28;20023;-88
2023/11/26 04:15:07;;;;;;;17.70;7.55;;;-0.40;99.90;;;;;;5002487;28;20083;-85
2023/11/26 04:17:34;;;;;;;15.25;7.43;;;-0.40;99.90;;;;;;5017246;28;20031;-86
2023/11/26 04:20:00;;;;;;;14.55;7.25;;;-0.40;99.90;;;;;;5024275;28;20011;-87
2023/11/26 04:22:27;;;;;;;17.45;8.30;;;-0.40;99.90;;;;;;5002510;28;20038;-87
2023/11/26 04:24:56;;;;;;;11.63;6.88;;;-0.40;99.90;;;;;;5002525;28;20029;-86
2023/11/26 04:27:22;;;;;;;16.17;7.07;;;-0.30;99.90;;;;;;5002509;28;20011;-86
2023/11/26 04:29:47;;;;;;;15.20;6.25;;;-0.30;99.90;;;;;;5002340;28;20045;-88
2023/11/26 04:32:14;;;;;;;17.63;8.02;;;-0.30;99.90;;;;;;5019175;28;20029;-86
2023/11/26 04:34:40;;;;;;;16.25;6.88;;;-0.30;99.90;;;;;;5001968;28;20093;-88
2023/11/26 04:37:09;;;;;;;21.00;7.97;;;-0.30;99.90;;;;;;5002014;28;20035;-86
2023/11/26 04:39:36;;;;;;;17.05;6.88;;;-0.30;99.90;;;;;;5019081;28;20006;-87
2023/11/26 04:42:02;;;;;;;16.88;6.88;;;-0.20;99.90;;;;;;5001946;28;20053;-88
2023/11/26 04:44:28;;;;;;;15.88;6.97;;;-0.20;99.90;;;;;;5002013;28;20022;-87
2023/11/26 04:46:54;;;;;;;12.57;6.32;;;-0.20;99.90;;;;;;5018979;28;20090;-87
2023/11/26 04:49:20;;;;;;;14.38;7.25;;;-0.20;99.90;;;;;;5002133;28;20085;-86
2023/11/26 04:51:46;;;;;;;14.80;7.38;;;-0.20;99.90;;;;;;5019564;28;20029;-89
2023/11/26 04:54:12;;;;;;;19.13;7.53;;;-0.20;99.90;;;;;;5001959;28;20023;-90
2023/11/26 04:56:39;;;;;;;17.45;7.15;;;-0.30;99.90;;;;;;5018689;28;20102;-90
2023/11/26 04:59:06;;;;;;;18.63;7.93;;;-0.30;99.90;;;;;;5025775;28;20011;-91
2023/11/26 05:01:34;;;;;;;15.60;8.00;;;-0.20;99.90;;;;;;5001769;28;20109;-88
2023/11/26 05:04:00;;;;;;;23.13;7.55;;;-0.20;99.90;;;;;;4999067;28;20022;-89
2023/11/26 05:06:27;;;;;;;19.67;8.52;;;-0.20;99.90;;;;;;5001508;28;20013;-88
2023/11/26 05:08:53;;;;;;;16.55;7.85;;;-0.30;99.90;;;;;;5025941;28;20086;-89
2023/11/26 05:11:18;;;;;;;17.98;8.50;;;-0.30;99.90;;;;;;5018410;28;20030;-87
2023/11/26 05:13:45;;;;;;;17.10;7.93;;;-0.30;99.90;;;;;;5001701;28;20116;-93
2023/11/26 05:16:11;;;;;;;20.63;7.40;;;-0.30;99.90;;;;;;5001336;28;20069;-87
2023/11/26 05:18:37;;;;;;;15.60;7.78;;;-0.30;99.90;;;;;;4998519;28;20122;-86
2023/11/26 05:21:03;;;;;;;13.25;6.97;;;-0.30;99.90;;;;;;5001465;28;20041;-88
2023/11/26 05:23:30;;;;;;;13.80;7.38;;;-0.30;99.90;;;;;;5000958;28;20073;-90
2023/11/26 05:25:56;;;;;;;16.33;7.63;;;-0.30;99.90;;;;;;4999410;28;20043;-93
2023/11/26 05:28:22;;;;;;;23.85;10.05;;;-0.30;99.90;;;;;;4999689;28;20042;-92
2023/11/26 05:30:49;;;;;;;20.17;7.82;;;-0.20;99.90;;;;;;4999838;28;20117;-90
2023/11/26 05:33:14;;;;;;;18.42;8.32;;;-0.30;99.90;;;;;;5013790;28;20021;-93
2023/11/26 05:35:40;;;;;;;22.00;8.85;;;-0.20;99.90;;;;;;5019210;28;20045;-93
2023/11/26 05:38:06;;;;;;;13.70;7.15;;;-0.20;99.90;;;;;;5007710;28;20045;-89
2023/11/26 05:40:32;;;;;;;16.00;7.93;;;-0.20;99.90;;;;;;5016437;28;20038;-92
2023/11/26 05:42:58;;;;;;;21.75;8.65;;;-0.20;99.90;;;;;;4999437;28;20042;-93
2023/11/26 05:45:25;;;;;;;17.70;9.10;;;-0.20;99.90;;;;;;4999710;28;20034;-92
2023/11/26 05:47:50;;;;;;;16.90;7.55;;;-0.20;99.90;;;;;;4999355;28;20031;-92
2023/11/26 05:50:16;;;;;;;17.55;7.75;;;-0.30;99.90;;;;;;5000173;28;20049;-90
2023/11/26 05:52:43;;;;;;;17.73;7.97;;;-0.30;99.90;;;;;;5000813;28;20034;-90
2023/11/26 05:55:10;;;;;;;16.92;8.00;;;-0.30;99.90;;;;;;5000623;28;20094;-88
2023/11/26 05:57:36;;;;;;;14.25;7.68;;;-0.20;99.90;;;;;;5018109;28;20057;-91
2023/11/26 06:00:03;;;;;;;17.75;7.88;;;-0.20;99.90;;;;;;5001044;28;20041;-88
2023/11/26 06:02:28;;;;;;;19.58;8.48;;;-0.20;99.90;;;;;;5017636;28;20074;-90
2023/11/26 06:04:54;;;;;;;21.35;8.77;;;-0.20;99.90;;;;;;5001121;28;20006;-92
2023/11/26 06:07:20;;;;;;;23.67;8.75;;;-0.20;99.90;;;;;;5033710;28;20102;-91
2023/11/26 06:09:45;;;;;;;19.88;8.38;;;-0.20;99.90;;;;;;5000909;28;20037;-93
2023/11/26 06:12:11;;;;;;;19.08;8.35;;;-0.20;99.90;;;;;;5017631;28;20121;-92
2023/11/26 06:14:37;;;;;;;17.70;8.18;;;-0.20;99.90;;;;;;5000397;28;20058;-91
2023/11/26 06:17:03;;;;;;;19.35;8.25;;;-0.20;99.90;;;;;;5017650;28;20047;-94
2023/11/26 06:19:29;;;;;;;19.55;8.48;;;-0.20;99.90;;;;;;4999242;28;20030;-95
2023/11/26 06:21:54;;;;;;;21.17;8.48;;;-0.30;99.90;;;;;;4999158;28;20022;-91
2023/11/26 06:24:20;;;;;;;16.38;8.65;;;-0.30;99.90;;;;;;5016297;28;20026;-95
2023/11/26 06:26:46;;;;;;;22.25;9.25;;;-0.30;99.90;;;;;;4997971;28;20030;-91
2023/11/26 06:29:12;;;;;;;18.63;8.35;;;-0.20;99.90;;;;;;4996021;28;20030;-93
2023/11/26 06:31:39;;;;;;;21.33;9.27;;;-0.20;99.90;;;;;;4995639;28;20022;-92
2023/11/26 06:34:04;;;;;;;25.00;9.05;;;-0.30;99.90;;;;;;4998918;28;20029;-92
2023/11/26 06:36:30;;;;;;;19.27;8.27;;;-0.30;99.90;;;;;;5014804;28;20066;-94
2023/11/26 06:38:56;;;;;;;22.13;8.68;;;-0.30;99.90;;;;;;4996109;28;20062;-95
2023/11/26 06:41:31;;;;;;;19.02;7.97;;;-0.20;99.90;;;;;;4998250;28;20052;-92
2023/11/26 06:43:59;;;;;;;22.98;10.05;;;-0.30;99.90;;;;;;5033025;28;20031;-90
2023/11/26 06:46:27;;;;;;;18.88;7.72;;;-0.30;99.90;;;;;;5016812;28;20086;-93
2023/11/26 06:48:53;;;;;;;17.38;7.43;;;-0.30;99.90;;;;;;5032008;28;20022;-91
2023/11/26 06:51:19;;;;;;;18.15;7.63;;;-0.30;99.90;;;;;;5014686;28;20025;-91
2023/11/26 06:53:45;;;;;;;21.40;9.25;;;-0.30;99.90;;;;;;4999692;28;20049;-92
2023/11/26 06:56:11;;;;;;;17.25;7.70;;;-0.30;99.90;;;;;;5016823;28;20031;-91
2023/11/26 06:58:37;;;;;;;16.85;8.35;;;-0.30;99.90;;;;;;5016843;28;20061;-88
2023/11/26 07:01:05;;;;;;;17.95;7.75;;;-0.40;99.90;;;;;;5000540;28;20146;-88
2023/11/26 07:03:32;;;;;;;17.75;7.25;;;-0.30;99.90;;;;;;5000516;28;20029;-86
2023/11/26 07:05:59;;;;;;;22.40;8.20;;;-0.30;99.90;;;;;;5032903;28;20181;-87
2023/11/26 07:08:25;;;;;;;16.27;7.65;;;-0.30;99.90;;;;;;5000837;28;20014;-89
2023/11/26 07:10:51;;;;;;;18.02;8.30;;;-0.20;99.90;;;;;;5033204;28;20041;-93
2023/11/26 07:13:17;;;;;;;16.15;8.10;;;-0.20;99.90;;;;;;5000824;28;20018;-89
2023/11/26 07:15:44;;;;;;;23.70;8.60;;;-0.20;99.90;;;;;;5017237;28;20030;-89
2023/11/26 07:18:12;;;;;;;14.77;7.72;;;-0.20;99.90;;;;;;5000752;28;20030;-89
2023/11/26 07:20:37;;;;;;;18.58;8.15;;;-0.20;99.90;;;;;;4984962;28;20007;-87
2023/11/26 07:23:04;;;;;;;18.73;7.50;;;-0.20;99.90;;;;;;5000294;28;20036;-93
2023/11/26 07:25:30;;;;;;;22.75;8.25;;;-0.10;99.90;;;;;;5012464;28;20048;-90
2023/11/26 07:27:57;;;;;;;16.73;8.07;;;-0.10;99.90;;;;;;4995843;28;20038;-94
2023/11/26 07:30:23;;;;;;;24.33;8.40;;;-0.10;99.90;;;;;;5001967;28;20026;-89
2023/11/26 07:32:50;;;;;;;17.35;8.07;;;-0.10;99.90;;;;;;5040407;28;20076;-96
2023/11/26 07:35:16;;;;;;;13.43;7.65;;;-0.10;99.90;;;;;;5019596;28;20018;-96
2023/11/26 07:37:42;;;;;;;20.67;7.15;;;-0.10;99.90;;;;;;5038680;28;20033;-93
2023/11/26 07:40:14;;;;;;;14.82;6.38;;;-0.10;99.90;;;;;;5033198;28;20044;-92
2023/11/26 07:42:41;;;;;;;19.15;7.18;;;-0.10;99.90;;;;;;5018470;28;20025;-92
2023/11/26 07:45:08;;;;;;;15.15;6.68;;;0.00;99.90;;;;;;5018524;28;20041;-95
2023/11/26 07:47:33;;;;;;;13.18;6.32;;;-0.10;99.90;;;;;;5029631;28;20037;-93
2023/11/26 07:49:59;;;;;;;15.23;6.35;;;-0.10;99.90;;;;;;5033281;28;20032;-94
2023/11/26 07:52:25;;;;;;;21.42;7.25;;;-0.20;99.90;;;;;;5013917;28;20045;-94
2023/11/26 07:54:51;;;;;;;17.85;7.38;;;-0.20;99.90;;;;;;5002619;28;20243;-95
2023/11/26 07:57:17;;;;;;;19.00;8.23;;;-0.20;99.90;;;;;;5004765;28;20061;-96
2023/11/26 07:59:43;;;;;;;12.45;6.28;;;-0.20;99.90;;;;;;4992537;28;20387;-93
2023/11/26 08:02:10;;;;;;;20.67;7.45;;;-0.30;99.90;;;;;;4992881;28;20106;-96
2023/11/26 08:04:39;;;;;;;20.42;8.30;;;-0.30;99.90;;;;;;4999207;28;20030;-94
2023/11/26 08:07:05;;;;;;;17.30;7.93;;;-0.30;99.90;;;;;;4991307;28;20050;-94
2023/11/26 08:09:33;;;;;;;18.33;8.00;;;-0.30;99.90;;;;;;4999243;28;20068;-95
2023/11/26 08:12:00;;;;;;;24.23;7.45;;;-0.30;99.90;;;;;;4991127;28;20027;-95
2023/11/26 08:14:27;;;;;;;19.05;7.47;;;-0.40;99.90;;;;;;4980393;28;20023;-94
2023/11/26 08:16:57;;;;;;;21.75;8.07;;;-0.40;99.90;;;;;;4978119;28;20097;-96
2023/11/26 08:19:24;;;;;;;22.77;7.82;;;-0.30;99.90;;;;;;4963220;28;20480;-93
2023/11/26 08:21:54;;;;;;;18.05;7.80;;;-0.40;99.90;;;;;;4964757;28;20058;-95
2023/11/26 08:24:20;;;;;;;18.65;7.70;;;-0.40;99.90;;;;;;4964417;28;20030;-93
2023/11/26 08:26:46;;;;;;;20.30;8.48;;;-0.40;99.90;;;;;;4988384;28;20411;-91
2023/11/26 08:29:16;;;;;;;21.30;9.98;;;-0.40;99.90;;;;;;4984334;28;20034;-94
2023/11/26 08:31:42;;;;;;;62.00;23.20;;;-0.40;99.90;;;;;;4981090;28;20126;-94
2023/11/26 08:34:09;;;;;;;33.72;15.73;;;-0.40;99.90;;;;;;5001993;28;20049;-94
2023/11/26 08:36:40;;;;;;;45.83;18.60;;;-0.40;99.90;;;;;;4986347;28;20044;-95
2023/11/26 08:39:06;;;;;;;37.33;13.73;;;-0.40;99.90;;;;;;5005315;28;20074;-95
2023/11/26 08:41:32;;;;;;;42.85;14.75;;;-0.40;99.90;;;;;;4990196;28;20105;-92
2023/11/26 08:43:58;;;;;;;32.35;13.30;;;-0.40;99.90;;;;;;4987826;28;20113;-92
2023/11/26 08:46:26;;;;;;;35.75;13.80;;;-0.40;99.90;;;;;;4987117;28;20042;-94
2023/11/26 08:48:52;;;;;;;27.27;10.30;;;-0.40;99.90;;;;;;4986570;28;20037;-94
2023/11/26 08:51:20;;;;;;;28.15;11.00;;;-0.40;99.90;;;;;;4986491;28;20034;-95
2023/11/26 08:53:46;;;;;;;27.83;9.30;;;-0.40;99.90;;;;;;4992011;28;20106;-93
2023/11/26 08:56:12;;;;;;;22.77;9.23;;;-0.40;99.90;;;;;;4999990;28;20046;-95
2023/11/26 08:58:38;;;;;;;24.63;9.52;;;-0.40;99.90;;;;;;4988519;28;20026;-94
2023/11/26 09:01:05;;;;;;;21.48;9.63;;;-0.30;99.90;;;;;;4988245;28;20116;-95
2023/11/26 09:03:32;;;;;;;27.60;10.55;;;-0.30;99.90;;;;;;4980972;28;20033;-95
2023/11/26 09:05:57;;;;;;;21.98;10.57;;;-0.30;99.90;;;;;;4986241;28;20037;-95
2023/11/26 09:08:25;;;;;;;25.35;10.05;;;-0.30;99.90;;;;;;4990025;28;20034;-94
2023/11/26 09:10:51;;;;;;;25.15;9.57;;;-0.30;99.90;;;;;;4990256;28;20027;-93
2023/11/26 09:13:17;;;;;;;22.15;9.68;;;-0.20;99.90;;;;;;4988785;28;20027;-95
2023/11/26 09:15:43;;;;;;;22.58;8.50;;;-0.20;99.90;;;;;;4993305;28;20054;-93
2023/11/26 09:18:09;;;;;;;21.13;8.90;;;-0.20;99.90;;;;;;4990803;28;20036;-95
2023/11/26 09:20:34;;;;;;;25.90;9.48;;;-0.20;99.90;;;;;;4977361;28;20019;-93
2023/11/26 09:23:00;;;;;;;22.92;9.60;;;-0.20;99.90;;;;;;4974315;28;20030;-94
2023/11/26 09:25:27;;;;;;;20.90;9.23;;;-0.10;99.90;;;;;;4988223;28;20034;-94
2023/11/26 09:27:53;;;;;;;25.58;9.07;;;-0.20;99.90;;;;;;4990357;28;20033;-95
2023/11/26 09:30:19;;;;;;;19.73;8.40;;;-0.20;99.90;;;;;;4984320;28;20023;-93
2023/11/26 09:32:45;;;;;;;19.45;9.20;;;-0.20;99.90;;;;;;4994607;28;20042;-93
2023/11/26 09:35:10;;;;;;;17.83;8.40;;;-0.20;99.90;;;;;;4997999;28;20035;-94
2023/11/26 09:37:36;;;;;;;19.00;9.20;;;-0.10;99.90;;;;;;4998850;28;20022;-90
2023/11/26 09:40:02;;;;;;;20.70;8.80;;;-0.10;99.90;;;;;;4999933;28;20026;-90
2023/11/26 09:42:29;;;;;;;21.77;8.90;;;-0.10;99.90;;;;;;5000068;28;20019;-91
2023/11/26 09:44:55;;;;;;;25.60;9.00;;;0.00;99.90;;;;;;5000275;28;20081;-91
2023/11/26 09:47:21;;;;;;;21.95;10.27;;;0.00;99.90;;;;;;4996283;28;20041;-94
2023/11/26 09:49:47;;;;;;;29.83;11.48;;;0.10;99.90;;;;;;4990474;28;20022;-95
2023/11/26 09:52:16;;;;;;;17.92;8.93;;;0.20;99.90;;;;;;5017549;28;20006;-89
2023/11/26 09:54:42;;;;;;;22.48;9.65;;;0.30;99.90;;;;;;5000647;28;20022;-89
2023/11/26 09:57:09;;;;;;;19.50;9.18;;;0.50;99.90;;;;;;5000884;28;20065;-88
2023/11/26 09:59:35;;;;;;;18.85;8.90;;;0.60;99.90;;;;;;5000987;28;20058;-89
2023/11/26 10:02:03;;;;;;;20.73;9.80;;;0.90;99.90;;;;;;5002976;28;20018;-90
2023/11/26 10:04:48;;;;;;;21.25;9.90;;;1.10;99.90;;;;;;4999681;28;20010;-91
2023/11/26 10:07:16;;;;;;;17.45;8.40;;;1.40;99.90;;;;;;5002463;28;20026;-91
2023/11/26 10:10:23;;;;;;;26.23;11.38;;;1.50;99.90;;;;;;5013980;28;20017;-90
2023/11/26 10:13:09;;;;;;;19.02;9.18;;;1.50;99.90;;;;;;4983788;28;20102;-89
2023/11/26 10:15:41;;;;;;;24.30;9.48;;;1.60;99.90;;;;;;5009314;28;20026;-89
2023/11/26 10:18:09;;;;;;;16.77;9.25;;;1.70;99.90;;;;;;5016688;28;20034;-90
2023/11/26 10:20:39;;;;;;;19.15;7.97;;;1.70;99.90;;;;;;5004550;28;20068;-90
2023/11/26 10:23:08;;;;;;;;;;;1.80;99.90;;;;;;5007739;28;20042;-89
2023/11/26 10:25:34;;;;;;;16.77;7.90;;;1.90;99.90;;;;;;5013207;28;19977;-88
2023/11/26 10:28:00;;;;;;;17.95;7.38;;;1.90;99.90;;;;;;5000343;28;20023;-90
2023/11/26 10:30:30;;;;;;;19.60;7.53;;;2.00;99.90;;;;;;5016868;28;20010;-90
2023/11/26 10:33:04;;;;;;;14.80;8.02;;;2.00;99.90;;;;;;5016989;28;20011;-90
2023/11/26 10:35:51;;;;;;;17.38;7.57;;;2.00;99.90;;;;;;4999954;28;20030;-90
2023/11/26 10:38:19;;;;;;;15.45;7.45;;;2.10;99.90;;;;;;5003342;28;20038;-90
2023/11/26 10:40:46;;;;;;;46.72;19.55;;;2.10;99.90;;;;;;5000978;28;20015;-91
2023/11/26 10:43:12;;;;;;;25.98;8.98;;;2.20;99.90;;;;;;5015563;28;20022;-93
2023/11/26 10:45:41;;;;;;;27.90;14.38;;;2.20;99.90;;;;;;4993864;28;20032;-93
2023/11/26 10:48:10;;;;;;;28.80;12.93;;;2.30;99.90;;;;;;4999281;28;20015;-90
2023/11/26 10:51:08;;;;;;;24.98;11.23;;;2.30;99.90;;;;;;5019061;28;20082;-90
2023/11/26 10:53:46;;;;;;;18.13;10.65;;;2.30;99.90;;;;;;5004986;28;20090;-88
2023/11/26 10:56:17;;;;;;;19.35;9.85;;;2.40;99.90;;;;;;4997491;28;20026;-90
2023/11/26 10:58:48;;;;;;;22.27;8.60;;;2.40;99.90;;;;;;5012784;28;20043;-94
2023/11/26 11:01:15;;;;;;;20.83;8.18;;;2.50;99.90;;;;;;4990434;28;20038;-94
2023/11/26 11:03:41;;;;;;;23.88;10.13;;;2.50;99.90;;;;;;5001779;28;20018;-95
2023/11/26 11:06:08;;;;;;;20.50;8.55;;;2.50;99.90;;;;;;4990143;28;20022;-96
2023/11/26 11:08:40;;;;;;;20.83;9.80;;;2.50;99.90;;;;;;4990153;28;20026;-94
2023/11/26 11:11:58;;;;;;;22.48;9.38;;;2.50;99.90;;;;;;5000726;28;20030;-96
2023/11/26 11:14:26;;;;;;;25.35;10.25;;;2.50;99.90;;;;;;4989699;28;20073;-95
2023/11/26 11:16:52;;;;;;;21.80;10.00;;;2.60;99.90;;;;;;5018294;28;20046;-94
2023/11/26 11:19:53;;;;;;;23.48;10.10;;;2.70;99.90;;;;;;5010643;28;20023;-95
2023/11/26 11:22:33;;;;;;;22.55;11.07;;;2.80;99.90;;;;;;5010690;28;20019;-96
2023/11/26 11:25:08;;;;;;;21.38;10.52;;;2.80;99.90;;;;;;5009521;28;20054;-96
2023/11/26 11:27:54;;;;;;;21.38;10.40;;;2.80;99.90;;;;;;4997731;28;20030;-95
2023/11/26 11:30:43;;;;;;;23.60;11.38;;;2.70;99.90;;;;;;4998318;28;20033;-96
2023/11/26 11:33:11;;;;;;;24.48;10.18;;;2.80;99.90;;;;;;5013178;28;20141;-95
2023/11/26 11:35:45;;;;;;;27.85;11.82;;;2.70;99.90;;;;;;4996370;28;20141;-95
2023/11/26 11:38:12;;;;;;;32.42;10.48;;;2.70;99.90;;;;;;5009672;28;20026;-95
2023/11/26 11:41:13;;;;;;;31.23;12.23;;;2.80;99.90;;;;;;5011903;28;20023;-95
2023/11/26 11:43:39;;;;;;;;;;;2.80;99.90;;;;;;5010509;28;20026;-95
2023/11/26 11:46:28;;;;;;;24.55;10.60;;;2.80;99.90;;;;;;5003592;28;19949;-95
2023/11/26 11:48:59;;;;;;;23.38;9.55;;;2.90;99.90;;;;;;4978404;28;20034;-96
2023/11/26 11:51:31;;;;;;;;;;;2.80;99.90;;;;;;5001642;28;20031;-96
2023/11/26 11:54:09;;;;;;;27.77;10.98;;;2.80;99.90;;;;;;4994577;28;19905;-95
2023/11/26 11:56:45;;;;;;;22.42;9.90;;;2.90;99.90;;;;;;4998786;28;20068;-95
2023/11/26 11:59:21;;;;;;;22.02;9.60;;;2.90;99.90;;;;;;4994117;28;20391;-95
2023/11/26 12:01:53;;;;;;;26.92;10.45;;;2.90;99.90;;;;;;5003101;28;20512;-95
2023/11/26 12:04:38;;;;;;;22.40;10.27;;;3.00;99.90;;;;;;5014132;28;20022;-95
2023/11/26 12:07:35;;;;;;;26.48;10.20;;;3.00;99.90;;;;;;5011519;28;20029;-95
2023/11/26 12:10:33;;;;;;;21.63;9.43;;;3.00;99.90;;;;;;4988910;28;20041;-94
2023/11/26 12:13:10;;;;;;;22.55;10.07;;;3.10;99.90;;;;;;4990241;28;20018;-94
2023/11/26 12:15:40;;;;;;;27.83;10.38;;;3.20;99.90;;;;;;4965858;28;20047;-95
2023/11/26 12:18:25;;;;;;;27.02;11.82;;;3.20;99.90;;;;;;4990462;28;20035;-95
2023/11/26 12:21:03;;;;;;;22.17;9.93;;;3.20;99.90;;;;;;4988154;28;20030;-94
2023/11/26 12:23:33;;;;;;;25.98;11.85;;;3.30;99.90;;;;;;4970681;28;20478;-95
2023/11/26 12:26:04;;;;;;;25.45;10.57;;;3.30;99.90;;;;;;4985271;28;20030;-94
2023/11/26 12:28:47;;;;;;;25.05;11.02;;;3.30;99.90;;;;;;4987925;28;20040;-94
2023/11/26 12:31:14;;;;;;;31.25;10.02;;;3.30;99.90;;;;;;4990741;28;20377;-95
2023/11/26 12:33:56;;;;;;;25.42;10.23;;;3.30;99.90;;;;;;4986580;28;20077;-93
2023/11/26 12:36:25;;;;;;;18.45;8.80;;;3.40;99.90;;;;;;4985046;28;20114;-94
2023/11/26 12:38:51;;;;;;;25.05;9.18;;;3.40;99.90;;;;;;4985567;28;20030;-95
2023/11/26 12:41:33;;;;;;;21.90;9.77;;;3.40;99.90;;;;;;4983563;28;20026;-94
2023/11/26 12:44:03;;;;;;;20.08;9.20;;;3.50;99.90;;;;;;5001651;28;20026;-95
2023/11/26 12:46:38;;;;;;;20.60;9.55;;;3.50;99.90;;;;;;5008460;28;20034;-95
2023/11/26 12:49:19;;;;;;;23.30;8.73;;;3.50;99.90;;;;;;4988955;28;20573;-95